createdAt,value
2018-12-21T00:00:45.823Z,0.00
2018-12-21T00:01:45.799Z,0.00
2018-12-21T00:02:45.772Z,0.00
2018-12-21T00:03:45.742Z,0.00
2018-12-21T00:04:45.720Z,0.00
2018-12-21T00:05:45.696Z,0.00
2018-12-21T00:06:45.670Z,0.00
2018-12-21T00:07:45.646Z,0.00
2018-12-21T00:08:45.622Z,0.00
2018-12-21T00:09:45.598Z,0.00
2018-12-21T00:10:45.625Z,0.00
2018-12-21T00:11:45.551Z,0.00
2018-12-21T00:12:45.526Z,0.00
2018-12-21T00:13:45.502Z,0.00
2018-12-21T00:14:45.479Z,0.00
2018-12-21T00:15:45.456Z,0.00
2018-12-21T00:16:45.429Z,0.00
2018-12-21T00:17:45.479Z,0.00
2018-12-21T00:18:45.385Z,0.00
2018-12-21T00:19:45.363Z,0.00
2018-12-21T00:20:45.335Z,0.00
2018-12-21T00:21:45.310Z,0.00
2018-12-21T00:22:45.284Z,0.00
2018-12-21T00:23:45.261Z,0.00
2018-12-21T00:24:45.235Z,0.00
2018-12-21T00:25:45.210Z,0.00
2018-12-21T00:26:45.188Z,0.00
2018-12-21T00:27:45.165Z,0.00
2018-12-21T00:28:45.140Z,0.00
2018-12-21T00:29:45.114Z,0.00
2018-12-21T00:30:45.092Z,0.00
2018-12-21T00:31:45.065Z,0.00
2018-12-21T00:32:45.042Z,0.00
2018-12-21T00:33:45.018Z,0.00
2018-12-21T00:34:44.994Z,0.00
2018-12-21T00:35:44.970Z,0.00
2018-12-21T00:36:44.945Z,0.00
2018-12-21T00:37:44.928Z,0.00
2018-12-21T00:38:44.904Z,0.00
2018-12-21T00:39:44.878Z,0.00
2018-12-21T00:40:44.851Z,0.00
2018-12-21T00:41:44.826Z,0.00
2018-12-21T00:42:44.803Z,0.00
2018-12-21T00:43:44.778Z,0.00
2018-12-21T00:44:44.753Z,0.00
2018-12-21T00:45:44.728Z,0.00
2018-12-21T00:46:44.741Z,0.00
2018-12-21T00:47:44.681Z,0.00
2018-12-21T00:48:44.660Z,0.00
2018-12-21T00:49:44.633Z,0.00
2018-12-21T00:50:44.607Z,0.00
2018-12-21T00:51:44.584Z,0.00
2018-12-21T00:52:44.561Z,0.00
2018-12-21T00:53:44.534Z,0.00
2018-12-21T00:54:44.512Z,0.00
2018-12-21T00:55:44.487Z,0.00
2018-12-21T00:56:44.463Z,0.00
2018-12-21T00:57:44.439Z,0.00
2018-12-21T00:58:44.416Z,0.00
2018-12-21T00:59:44.393Z,0.00
2018-12-21T01:00:44.366Z,0.00
2018-12-21T01:01:44.342Z,0.00
2018-12-21T01:02:44.319Z,0.00
2018-12-21T01:03:44.294Z,0.00
2018-12-21T01:04:44.271Z,0.00
2018-12-21T01:05:44.246Z,0.00
2018-12-21T01:06:44.224Z,0.00
2018-12-21T01:07:44.199Z,0.00
2018-12-21T01:08:44.176Z,0.00
2018-12-21T01:09:44.153Z,0.00
2018-12-21T01:10:44.127Z,0.00
2018-12-21T01:11:44.103Z,0.00
2018-12-21T01:12:44.078Z,0.00
2018-12-21T01:13:44.056Z,0.00
2018-12-21T01:14:44.030Z,0.00
2018-12-21T01:15:44.004Z,0.00
2018-12-21T01:16:43.981Z,0.00
2018-12-21T01:17:43.957Z,0.00
2018-12-21T01:18:43.933Z,0.00
2018-12-21T01:19:43.909Z,0.00
2018-12-21T01:20:43.885Z,0.00
2018-12-21T01:21:43.861Z,0.00
2018-12-21T01:22:43.837Z,0.00
2018-12-21T01:23:43.813Z,0.00
2018-12-21T01:24:43.789Z,0.00
2018-12-21T01:25:43.763Z,0.00
2018-12-21T01:26:43.743Z,0.00
2018-12-21T01:27:43.722Z,0.00
2018-12-21T01:28:43.692Z,0.00
2018-12-21T01:29:43.669Z,0.00
2018-12-21T01:30:43.645Z,0.00
2018-12-21T01:31:43.622Z,0.00
2018-12-21T01:32:43.597Z,0.00
2018-12-21T01:33:43.571Z,0.00
2018-12-21T01:34:43.547Z,0.00
2018-12-21T01:35:43.522Z,0.00
2018-12-21T01:36:43.522Z,0.00
2018-12-21T01:37:43.475Z,0.00
2018-12-21T01:38:43.450Z,0.00
2018-12-21T01:39:43.427Z,0.00
2018-12-21T01:40:43.403Z,0.00
2018-12-21T01:41:43.378Z,0.00
2018-12-21T01:42:43.358Z,0.00
2018-12-21T01:43:43.330Z,0.00
2018-12-21T01:44:43.311Z,0.00
2018-12-21T01:45:43.281Z,0.00
2018-12-21T01:46:43.258Z,0.00
2018-12-21T01:47:43.235Z,0.00
2018-12-21T01:48:43.215Z,0.00
2018-12-21T01:49:43.265Z,0.00
2018-12-21T01:50:43.187Z,0.00
2018-12-21T01:51:47.035Z,0.00
2018-12-21T01:52:43.116Z,0.00
2018-12-21T01:53:43.091Z,0.00
2018-12-21T01:54:43.065Z,0.00
2018-12-21T01:55:43.044Z,0.00
2018-12-21T01:56:43.017Z,0.00
2018-12-21T01:57:42.994Z,0.00
2018-12-21T01:58:42.970Z,0.00
2018-12-21T01:59:42.944Z,0.00
2018-12-21T02:00:42.944Z,0.00
2018-12-21T02:01:42.897Z,0.00
2018-12-21T02:02:42.873Z,0.00
2018-12-21T02:03:42.851Z,0.00
2018-12-21T02:04:42.825Z,0.00
2018-12-21T02:05:42.800Z,0.00
2018-12-21T02:06:42.776Z,0.00
2018-12-21T02:07:42.753Z,0.00
2018-12-21T02:08:42.733Z,0.00
2018-12-21T02:09:42.710Z,0.00
2018-12-21T02:10:42.682Z,0.00
2018-12-21T02:11:42.657Z,0.00
2018-12-21T02:12:42.633Z,0.00
2018-12-21T02:13:42.608Z,0.00
2018-12-21T02:14:42.584Z,0.00
2018-12-21T02:15:42.561Z,0.00
2018-12-21T02:16:42.536Z,0.00
2018-12-21T02:17:42.511Z,0.00
2018-12-21T02:18:42.489Z,0.00
2018-12-21T02:19:42.465Z,0.00
2018-12-21T02:20:42.441Z,0.00
2018-12-21T02:21:42.415Z,0.00
2018-12-21T02:22:42.392Z,0.00
2018-12-21T02:23:42.368Z,0.00
2018-12-21T02:24:42.346Z,0.00
2018-12-21T02:25:42.321Z,0.00
2018-12-21T02:26:42.298Z,0.00
2018-12-21T02:27:42.273Z,0.00
2018-12-21T02:28:42.352Z,0.00
2018-12-21T02:29:42.225Z,0.00
2018-12-21T02:30:42.203Z,0.00
2018-12-21T02:31:42.198Z,0.00
2018-12-21T02:32:42.154Z,0.00
2018-12-21T02:33:42.129Z,0.00
2018-12-21T02:34:42.113Z,0.00
2018-12-21T02:35:42.084Z,0.00
2018-12-21T02:36:42.056Z,0.00
2018-12-21T02:37:42.033Z,0.00
2018-12-21T02:38:42.011Z,0.00
2018-12-21T02:39:41.986Z,0.00
2018-12-21T02:40:41.962Z,0.00
2018-12-21T02:41:41.938Z,0.00
2018-12-21T02:42:41.911Z,0.00
2018-12-21T02:43:41.890Z,0.00
2018-12-21T02:44:41.866Z,0.00
2018-12-21T02:45:41.842Z,0.00
2018-12-21T02:46:41.817Z,0.00
2018-12-21T02:47:41.792Z,0.00
2018-12-21T02:48:41.770Z,0.00
2018-12-21T02:49:41.746Z,0.00
2018-12-21T02:50:41.719Z,0.00
2018-12-21T02:51:41.699Z,0.00
2018-12-21T02:52:41.671Z,0.00
2018-12-21T02:53:41.651Z,0.00
2018-12-21T02:54:41.624Z,0.00
2018-12-21T02:55:41.600Z,0.00
2018-12-21T02:56:41.576Z,0.00
2018-12-21T02:57:41.550Z,0.00
2018-12-21T02:58:41.528Z,0.00
2018-12-21T02:59:41.503Z,0.00
2018-12-21T03:00:41.482Z,0.00
2018-12-21T03:01:41.457Z,0.00
2018-12-21T03:02:41.431Z,0.00
2018-12-21T03:03:41.406Z,0.00
2018-12-21T03:04:41.382Z,0.00
2018-12-21T03:05:41.359Z,0.00
2018-12-21T03:06:41.335Z,0.00
2018-12-21T03:07:41.333Z,0.00
2018-12-21T03:08:41.289Z,0.00
2018-12-21T03:09:41.264Z,0.00
2018-12-21T03:10:41.248Z,0.00
2018-12-21T03:11:41.216Z,0.00
2018-12-21T03:12:41.190Z,0.00
2018-12-21T03:13:41.167Z,0.00
2018-12-21T03:14:41.144Z,0.00
2018-12-21T03:15:41.123Z,0.00
2018-12-21T03:16:41.097Z,0.00
2018-12-21T03:17:41.072Z,0.00
2018-12-21T03:18:41.047Z,0.00
2018-12-21T03:19:41.025Z,0.00
2018-12-21T03:20:41.000Z,0.00
2018-12-21T03:21:40.977Z,0.00
2018-12-21T03:22:40.960Z,0.00
2018-12-21T03:23:40.929Z,0.00
2018-12-21T03:24:40.906Z,0.00
2018-12-21T03:25:40.880Z,0.00
2018-12-21T03:26:40.856Z,0.00
2018-12-21T03:27:40.833Z,0.00
2018-12-21T03:28:40.812Z,0.00
2018-12-21T03:29:40.786Z,0.00
2018-12-21T03:30:40.765Z,0.00
2018-12-21T03:31:40.872Z,0.00
2018-12-21T03:32:40.715Z,0.00
2018-12-21T03:33:40.689Z,0.00
2018-12-21T03:34:40.666Z,0.00
2018-12-21T03:35:40.645Z,0.00
2018-12-21T03:36:40.620Z,0.00
2018-12-21T03:37:40.599Z,0.00
2018-12-21T03:38:40.570Z,0.00
2018-12-21T03:39:40.547Z,0.00
2018-12-21T03:40:40.524Z,0.00
2018-12-21T03:41:40.498Z,0.00
2018-12-21T03:42:40.477Z,0.00
2018-12-21T03:43:40.451Z,0.00
2018-12-21T03:44:40.428Z,0.00
2018-12-21T03:45:40.404Z,0.00
2018-12-21T03:46:40.380Z,0.00
2018-12-21T03:47:40.356Z,0.00
2018-12-21T03:48:40.332Z,0.00
2018-12-21T03:49:40.380Z,0.00
2018-12-21T03:50:40.285Z,0.00
2018-12-21T03:51:40.263Z,0.00
2018-12-21T03:52:40.237Z,0.00
2018-12-21T03:53:40.218Z,0.00
2018-12-21T03:54:40.305Z,0.00
2018-12-21T03:55:40.167Z,0.00
2018-12-21T03:56:40.143Z,0.00
2018-12-21T03:57:40.118Z,0.00
2018-12-21T03:58:40.093Z,0.00
2018-12-21T03:59:40.071Z,0.00
2018-12-21T04:00:40.052Z,0.00
2018-12-21T04:01:40.183Z,0.00
2018-12-21T04:02:40.008Z,0.00
2018-12-21T04:03:39.978Z,0.00
2018-12-21T04:04:39.961Z,0.00
2018-12-21T04:05:39.931Z,0.00
2018-12-21T04:06:39.904Z,0.00
2018-12-21T04:07:39.882Z,0.00
2018-12-21T04:08:39.858Z,0.00
2018-12-21T04:09:39.835Z,0.00
2018-12-21T04:10:39.812Z,0.00
2018-12-21T04:11:39.798Z,0.00
2018-12-21T04:12:39.763Z,0.00
2018-12-21T04:13:39.739Z,0.00
2018-12-21T04:14:39.715Z,0.00
2018-12-21T04:15:39.695Z,0.00
2018-12-21T04:16:39.670Z,0.00
2018-12-21T04:17:39.651Z,0.00
2018-12-21T04:18:39.620Z,0.00
2018-12-21T04:19:39.597Z,0.00
2018-12-21T04:20:39.573Z,0.00
2018-12-21T04:21:39.548Z,0.00
2018-12-21T04:22:39.525Z,0.00
2018-12-21T04:23:39.536Z,0.00
2018-12-21T04:24:39.478Z,0.00
2018-12-21T04:25:39.455Z,0.00
2018-12-21T04:26:39.432Z,0.00
2018-12-21T04:27:39.409Z,0.00
2018-12-21T04:28:39.386Z,0.00
2018-12-21T04:29:39.359Z,0.00
2018-12-21T04:30:39.335Z,0.00
2018-12-21T04:31:39.311Z,0.00
2018-12-21T04:32:39.291Z,0.00
2018-12-21T04:33:39.264Z,0.00
2018-12-21T04:34:39.268Z,0.00
2018-12-21T04:35:39.219Z,0.00
2018-12-21T04:36:39.195Z,0.00
2018-12-21T04:37:39.170Z,0.00
2018-12-21T04:38:39.148Z,0.00
2018-12-21T04:39:39.122Z,0.00
2018-12-21T04:40:39.101Z,0.00
2018-12-21T04:41:39.075Z,0.00
2018-12-21T04:42:39.051Z,0.00
2018-12-21T04:43:39.030Z,0.00
2018-12-21T04:44:39.006Z,0.00
2018-12-21T04:45:38.980Z,0.00
2018-12-21T04:46:38.957Z,0.00
2018-12-21T04:47:38.935Z,0.00
2018-12-21T04:48:38.908Z,0.00
2018-12-21T04:49:38.885Z,0.00
2018-12-21T04:50:38.861Z,0.00
2018-12-21T04:51:38.838Z,0.00
2018-12-21T04:52:43.144Z,0.00
2018-12-21T04:53:38.794Z,0.00
2018-12-21T04:54:38.766Z,0.00
2018-12-21T04:55:38.867Z,0.00
2018-12-21T04:56:38.722Z,0.00
2018-12-21T04:57:38.697Z,0.00
2018-12-21T04:58:38.679Z,0.00
2018-12-21T04:59:38.649Z,0.00
2018-12-21T05:00:38.623Z,0.00
2018-12-21T05:01:38.608Z,0.00
2018-12-21T05:02:38.575Z,0.00
2018-12-21T05:03:38.555Z,0.00
2018-12-21T05:04:38.536Z,0.00
2018-12-21T05:05:39.567Z,0.00
2018-12-21T05:06:38.484Z,0.00
2018-12-21T05:07:38.457Z,0.00
2018-12-21T05:08:38.434Z,0.00
2018-12-21T05:09:38.409Z,0.00
2018-12-21T05:10:38.386Z,0.00
2018-12-21T05:11:38.364Z,0.00
2018-12-21T05:12:38.340Z,0.00
2018-12-21T05:13:38.316Z,0.00
2018-12-21T05:14:38.289Z,0.00
2018-12-21T05:15:38.268Z,0.00
2018-12-21T05:16:38.246Z,0.00
2018-12-21T05:17:38.219Z,0.00
2018-12-21T05:18:38.196Z,0.00
2018-12-21T05:19:38.173Z,0.00
2018-12-21T05:20:38.150Z,0.00
2018-12-21T05:21:38.125Z,0.00
2018-12-21T05:22:38.101Z,0.00
2018-12-21T05:23:38.077Z,0.00
2018-12-21T05:24:38.057Z,0.00
2018-12-21T05:25:38.029Z,0.00
2018-12-21T05:26:38.007Z,0.00
2018-12-21T05:27:37.984Z,0.00
2018-12-21T05:28:37.970Z,0.00
2018-12-21T05:29:39.610Z,0.00
2018-12-21T05:30:37.914Z,0.00
2018-12-21T05:31:37.889Z,0.00
2018-12-21T05:32:37.865Z,0.00
2018-12-21T05:33:37.841Z,0.00
2018-12-21T05:34:37.817Z,0.00
2018-12-21T05:35:37.794Z,0.00
2018-12-21T05:36:37.772Z,0.00
2018-12-21T05:37:37.746Z,0.00
2018-12-21T05:38:37.729Z,0.00
2018-12-21T05:39:37.698Z,0.00
2018-12-21T05:40:37.675Z,0.00
2018-12-21T05:41:37.652Z,0.00
2018-12-21T05:42:37.630Z,0.00
2018-12-21T05:43:37.605Z,0.00
2018-12-21T05:44:37.585Z,0.00
2018-12-21T05:45:37.562Z,0.00
2018-12-21T05:46:37.532Z,0.00
2018-12-21T05:47:37.524Z,0.00
2018-12-21T05:48:37.486Z,0.00
2018-12-21T05:49:37.463Z,0.00
2018-12-21T05:50:37.439Z,0.00
2018-12-21T05:51:37.414Z,0.00
2018-12-21T05:52:37.393Z,0.00
2018-12-21T05:53:37.366Z,0.00
2018-12-21T05:54:37.343Z,0.00
2018-12-21T05:55:37.319Z,0.00
2018-12-21T05:56:37.296Z,0.00
2018-12-21T05:57:37.272Z,0.00
2018-12-21T05:58:37.347Z,0.00
2018-12-21T05:59:37.224Z,0.00
2018-12-21T06:00:37.200Z,0.00
2018-12-21T06:01:37.175Z,0.00
2018-12-21T06:02:37.154Z,0.00
2018-12-21T06:03:37.131Z,0.00
2018-12-21T06:04:37.105Z,0.00
2018-12-21T06:05:37.080Z,0.00
2018-12-21T06:06:37.056Z,0.00
2018-12-21T06:07:37.033Z,0.00
2018-12-21T06:08:37.010Z,0.00
2018-12-21T06:09:36.986Z,0.00
2018-12-21T06:10:36.961Z,0.00
2018-12-21T06:11:36.939Z,0.00
2018-12-21T06:12:36.918Z,0.00
2018-12-21T06:13:36.891Z,0.00
2018-12-21T06:14:36.869Z,0.00
2018-12-21T06:15:36.846Z,0.00
2018-12-21T06:16:36.818Z,0.00
2018-12-21T06:17:36.794Z,0.00
2018-12-21T06:18:36.771Z,0.00
2018-12-21T06:19:36.748Z,0.00
2018-12-21T06:20:36.725Z,0.00
2018-12-21T06:21:36.699Z,0.00
2018-12-21T06:22:36.676Z,0.00
2018-12-21T06:23:36.653Z,0.00
2018-12-21T06:24:36.629Z,0.00
2018-12-21T06:25:36.611Z,0.00
2018-12-21T06:26:36.584Z,0.00
2018-12-21T06:27:36.559Z,0.00
2018-12-21T06:28:36.536Z,0.00
2018-12-21T06:29:36.513Z,0.00
2018-12-21T06:30:36.487Z,0.00
2018-12-21T06:31:36.463Z,0.00
2018-12-21T06:32:36.441Z,0.00
2018-12-21T06:33:36.418Z,0.00
2018-12-21T06:34:36.393Z,0.00
2018-12-21T06:35:36.371Z,0.00
2018-12-21T06:36:36.356Z,0.00
2018-12-21T06:37:36.322Z,0.00
2018-12-21T06:38:36.299Z,0.00
2018-12-21T06:39:36.277Z,0.00
2018-12-21T06:40:36.251Z,0.00
2018-12-21T06:41:36.247Z,0.00
2018-12-21T06:42:36.206Z,0.00
2018-12-21T06:43:36.181Z,0.00
2018-12-21T06:44:36.170Z,0.00
2018-12-21T06:45:36.132Z,0.00
2018-12-21T06:46:36.136Z,0.00
2018-12-21T06:47:36.086Z,0.00
2018-12-21T06:48:36.063Z,0.00
2018-12-21T06:49:36.038Z,0.00
2018-12-21T06:50:36.019Z,0.00
2018-12-21T06:51:35.994Z,0.00
2018-12-21T06:52:35.969Z,0.00
2018-12-21T06:53:35.944Z,0.00
2018-12-21T06:54:35.922Z,0.00
2018-12-21T06:55:35.896Z,0.00
2018-12-21T06:56:35.874Z,0.00
2018-12-21T06:57:35.858Z,0.00
2018-12-21T06:58:35.827Z,0.00
2018-12-21T06:59:35.802Z,0.00
2018-12-21T07:00:35.779Z,0.00
2018-12-21T07:01:35.774Z,0.00
2018-12-21T07:02:35.731Z,0.00
2018-12-21T07:03:35.708Z,0.00
2018-12-21T07:04:35.684Z,0.00
2018-12-21T07:05:35.658Z,0.00
2018-12-21T07:06:35.636Z,0.00
2018-12-21T07:07:35.612Z,0.00
2018-12-21T07:08:35.592Z,0.00
2018-12-21T07:09:35.564Z,0.00
2018-12-21T07:10:35.541Z,0.00
2018-12-21T07:11:35.518Z,0.00
2018-12-21T07:12:35.495Z,0.00
2018-12-21T07:13:35.470Z,0.00
2018-12-21T07:14:35.445Z,0.00
2018-12-21T07:15:35.422Z,0.00
2018-12-21T07:16:35.399Z,0.00
2018-12-21T07:17:35.374Z,0.00
2018-12-21T07:18:35.357Z,0.00
2018-12-21T07:19:35.328Z,0.00
2018-12-21T07:20:35.307Z,0.00
2018-12-21T07:21:35.280Z,0.00
2018-12-21T07:22:35.257Z,0.00
2018-12-21T07:23:35.234Z,0.00
2018-12-21T07:24:35.209Z,0.00
2018-12-21T07:25:35.185Z,0.00
2018-12-21T07:26:35.162Z,0.00
2018-12-21T07:27:35.154Z,0.00
2018-12-21T07:28:35.115Z,0.00
2018-12-21T07:29:35.092Z,0.00
2018-12-21T07:30:35.066Z,0.00
2018-12-21T07:31:35.043Z,0.00
2018-12-21T07:32:35.021Z,0.00
2018-12-21T07:33:34.996Z,0.00
2018-12-21T07:34:34.975Z,0.00
2018-12-21T07:35:34.951Z,0.00
2018-12-21T07:36:34.930Z,0.00
2018-12-21T07:37:34.904Z,0.00
2018-12-21T07:38:34.878Z,0.00
2018-12-21T07:39:34.856Z,0.00
2018-12-21T07:40:34.832Z,0.00
2018-12-21T07:41:34.807Z,4.00
2018-12-21T07:42:34.786Z,4.00
2018-12-21T07:43:34.761Z,4.00
2018-12-21T07:44:34.739Z,4.00
2018-12-21T07:45:34.711Z,4.00
2018-12-21T07:46:34.690Z,4.00
2018-12-21T07:47:34.669Z,4.00
2018-12-21T07:48:34.646Z,4.00
2018-12-21T07:49:34.619Z,4.00
2018-12-21T07:50:34.595Z,4.00
2018-12-21T07:51:34.576Z,4.00
2018-12-21T07:52:34.550Z,4.00
2018-12-21T07:53:35.854Z,8.00
2018-12-21T07:54:34.502Z,4.00
2018-12-21T07:55:34.481Z,4.00
2018-12-21T07:56:34.456Z,8.00
2018-12-21T07:57:34.431Z,8.00
2018-12-21T07:58:34.409Z,8.00
2018-12-21T07:59:34.388Z,8.00
2018-12-21T08:00:34.362Z,8.00
2018-12-21T08:01:34.339Z,8.00
2018-12-21T08:02:34.320Z,8.00
2018-12-21T08:03:34.291Z,8.00
2018-12-21T08:04:34.269Z,12.00
2018-12-21T08:05:34.245Z,12.00
2018-12-21T08:06:34.221Z,12.00
2018-12-21T08:07:34.200Z,12.00
2018-12-21T08:08:34.177Z,16.00
2018-12-21T08:09:34.152Z,12.00
2018-12-21T08:10:34.130Z,12.00
2018-12-21T08:11:34.104Z,8.00
2018-12-21T08:12:34.082Z,12.00
2018-12-21T08:13:34.056Z,12.00
2018-12-21T08:14:34.034Z,12.00
2018-12-21T08:15:34.013Z,12.00
2018-12-21T08:16:33.988Z,16.00
2018-12-21T08:17:33.964Z,20.00
2018-12-21T08:18:33.943Z,16.00
2018-12-21T08:19:33.918Z,20.00
2018-12-21T08:20:33.895Z,20.00
2018-12-21T08:21:33.871Z,20.00
2018-12-21T08:22:33.848Z,24.00
2018-12-21T08:23:33.825Z,28.00
2018-12-21T08:24:33.801Z,24.00
2018-12-21T08:25:33.831Z,16.00
2018-12-21T08:26:33.760Z,16.00
2018-12-21T08:27:33.733Z,16.00
2018-12-21T08:28:33.709Z,16.00
2018-12-21T08:31:01.534Z,20.00
2018-12-21T08:32:01.476Z,20.00
2018-12-21T08:33:54.845Z,32.00
2018-12-21T08:34:54.796Z,32.00
2018-12-21T08:36:48.157Z,24.00
2018-12-21T08:37:48.104Z,20.00
2018-12-21T08:39:41.484Z,24.00
2018-12-21T08:40:41.427Z,16.00
2018-12-21T08:42:34.870Z,24.00
2018-12-21T08:43:34.749Z,24.00
2018-12-21T08:45:28.100Z,24.00
2018-12-21T08:46:28.047Z,20.00
2018-12-21T08:48:22.389Z,24.00
2018-12-21T08:49:22.358Z,24.00
2018-12-21T08:51:15.730Z,24.00
2018-12-21T08:52:15.668Z,24.00
2018-12-21T08:54:09.006Z,24.00
2018-12-21T08:55:08.971Z,24.00
2018-12-21T08:57:02.354Z,24.00
2018-12-21T08:58:02.298Z,28.00
2018-12-21T08:59:55.660Z,24.00
2018-12-21T09:00:55.603Z,24.00
2018-12-21T09:02:48.945Z,24.00
2018-12-21T09:03:48.917Z,24.00
2018-12-21T09:04:48.889Z,20.00
2018-12-21T09:05:48.865Z,28.00
2018-12-21T09:06:48.842Z,36.00
2018-12-21T09:07:48.820Z,36.00
2018-12-21T09:08:48.863Z,36.00
2018-12-21T09:09:48.773Z,44.00
2018-12-21T09:10:48.750Z,48.00
2018-12-21T09:11:48.729Z,52.00
2018-12-21T09:12:48.704Z,44.00
2018-12-21T09:13:48.726Z,48.00
2018-12-21T09:14:48.656Z,44.00
2018-12-21T09:15:48.633Z,48.00
2018-12-21T09:16:48.612Z,36.00
2018-12-21T09:17:48.587Z,40.00
2018-12-21T09:18:48.573Z,40.00
2018-12-21T09:19:48.545Z,52.00
2018-12-21T09:20:48.516Z,48.00
2018-12-21T09:21:48.506Z,44.00
2018-12-21T09:22:48.474Z,40.00
2018-12-21T09:23:48.446Z,36.00
2018-12-21T09:24:48.426Z,28.00
2018-12-21T09:25:48.400Z,24.00
2018-12-21T09:26:48.379Z,24.00
2018-12-21T09:27:48.359Z,24.00
2018-12-21T09:28:48.331Z,24.00
2018-12-21T09:29:48.307Z,28.00
2018-12-21T09:30:48.291Z,28.00
2018-12-21T09:31:48.287Z,24.00
2018-12-21T09:32:48.244Z,32.00
2018-12-21T09:33:48.215Z,40.00
2018-12-21T09:34:48.194Z,52.00
2018-12-21T09:35:48.173Z,52.00
2018-12-21T09:36:48.148Z,64.00
2018-12-21T09:37:48.125Z,96.00
2018-12-21T09:38:48.101Z,144.00
2018-12-21T09:39:48.076Z,136.00
2018-12-21T09:40:48.054Z,116.00
2018-12-21T09:41:48.033Z,96.00
2018-12-21T09:42:48.008Z,104.00
2018-12-21T09:43:47.985Z,112.00
2018-12-21T09:44:52.531Z,108.00
2018-12-21T09:45:47.937Z,108.00
2018-12-21T09:46:47.914Z,108.00
2018-12-21T09:47:47.893Z,100.00
2018-12-21T09:48:47.871Z,96.00
2018-12-21T09:49:47.845Z,96.00
2018-12-21T09:50:47.821Z,108.00
2018-12-21T09:51:47.801Z,112.00
2018-12-21T09:52:47.775Z,112.00
2018-12-21T09:53:47.755Z,120.00
2018-12-21T09:54:47.727Z,124.00
2018-12-21T09:55:47.716Z,136.00
2018-12-21T09:56:47.681Z,120.00
2018-12-21T09:57:47.660Z,116.00
2018-12-21T09:58:47.639Z,116.00
2018-12-21T09:59:47.618Z,128.00
2018-12-21T10:00:47.589Z,132.00
2018-12-21T10:01:47.569Z,144.00
2018-12-21T10:02:47.544Z,140.00
2018-12-21T10:03:47.521Z,144.00
2018-12-21T10:04:47.497Z,132.00
2018-12-21T10:05:47.474Z,128.00
2018-12-21T10:06:47.451Z,116.00
2018-12-21T10:07:47.427Z,80.00
2018-12-21T10:08:47.404Z,72.00
2018-12-21T10:09:47.381Z,112.00
2018-12-21T10:10:47.358Z,104.00
2018-12-21T10:11:47.337Z,120.00
2018-12-21T10:12:47.313Z,88.00
2018-12-21T10:13:47.295Z,124.00
2018-12-21T10:14:47.268Z,124.00
2018-12-21T10:15:47.244Z,128.00
2018-12-21T10:16:47.220Z,124.00
2018-12-21T10:17:47.198Z,108.00
2018-12-21T10:18:47.176Z,132.00
2018-12-21T10:19:47.154Z,136.00
2018-12-21T10:20:47.128Z,120.00
2018-12-21T10:21:47.107Z,120.00
2018-12-21T10:22:47.081Z,140.00
2018-12-21T10:23:47.059Z,152.00
2018-12-21T10:24:47.037Z,124.00
2018-12-21T10:25:47.021Z,100.00
2018-12-21T10:26:46.993Z,116.00
2018-12-21T10:27:46.967Z,108.00
2018-12-21T10:28:46.944Z,128.00
2018-12-21T10:29:46.922Z,104.00
2018-12-21T10:30:46.900Z,132.00
2018-12-21T10:31:46.877Z,124.00
2018-12-21T10:32:46.854Z,100.00
2018-12-21T10:33:46.830Z,100.00
2018-12-21T10:34:46.806Z,112.00
2018-12-21T10:35:46.786Z,104.00
2018-12-21T10:36:46.763Z,116.00
2018-12-21T10:37:46.737Z,84.00
2018-12-21T10:38:46.819Z,104.00
2018-12-21T10:39:46.695Z,84.00
2018-12-21T10:40:46.682Z,80.00
2018-12-21T10:41:46.647Z,88.00
2018-12-21T10:42:46.624Z,108.00
2018-12-21T10:43:46.814Z,96.00
2018-12-21T10:44:46.634Z,88.00
2018-12-21T10:45:46.554Z,88.00
2018-12-21T10:46:46.552Z,84.00
2018-12-21T10:47:46.511Z,84.00
2018-12-21T10:48:46.487Z,88.00
2018-12-21T10:49:46.464Z,140.00
2018-12-21T10:50:46.439Z,80.00
2018-12-21T10:51:46.416Z,96.00
2018-12-21T10:52:46.401Z,84.00
2018-12-21T10:53:46.830Z,84.00
2018-12-21T10:54:46.369Z,84.00
2018-12-21T10:55:46.327Z,64.00
2018-12-21T10:56:46.300Z,76.00
2018-12-21T10:57:46.277Z,92.00
2018-12-21T10:58:46.254Z,112.00
2018-12-21T10:59:46.233Z,108.00
2018-12-21T11:00:46.213Z,120.00
2018-12-21T11:01:46.188Z,84.00
2018-12-21T11:02:46.164Z,80.00
2018-12-21T11:03:46.139Z,68.00
2018-12-21T11:04:46.130Z,64.00
2018-12-21T11:05:46.095Z,68.00
2018-12-21T11:06:46.072Z,60.00
2018-12-21T11:07:46.049Z,76.00
2018-12-21T11:08:46.029Z,84.00
2018-12-21T11:09:46.004Z,96.00
2018-12-21T11:10:46.004Z,96.00
2018-12-21T11:11:45.957Z,116.00
2018-12-21T11:12:45.933Z,112.00
2018-12-21T11:13:45.911Z,152.00
2018-12-21T11:14:45.888Z,124.00
2018-12-21T11:15:45.866Z,144.00
2018-12-21T11:16:45.842Z,116.00
2018-12-21T11:17:45.824Z,96.00
2018-12-21T11:18:45.798Z,84.00
2018-12-21T11:19:45.773Z,80.00
2018-12-21T11:20:45.752Z,92.00
2018-12-21T11:21:45.729Z,120.00
2018-12-21T11:22:45.705Z,116.00
2018-12-21T11:23:45.682Z,120.00
2018-12-21T11:24:45.660Z,128.00
2018-12-21T11:25:45.666Z,140.00
2018-12-21T11:26:45.615Z,136.00
2018-12-21T11:27:45.592Z,156.00
2018-12-21T11:28:45.569Z,144.00
2018-12-21T11:29:45.549Z,148.00
2018-12-21T11:30:45.527Z,120.00
2018-12-21T11:31:45.503Z,148.00
2018-12-21T11:32:45.480Z,116.00
2018-12-21T11:33:45.457Z,128.00
2018-12-21T11:34:45.436Z,124.00
2018-12-21T11:35:45.411Z,136.00
2018-12-21T11:36:45.389Z,120.00
2018-12-21T11:37:45.453Z,116.00
2018-12-21T11:38:45.342Z,120.00
2018-12-21T11:39:45.321Z,120.00
2018-12-21T11:40:45.297Z,128.00
2018-12-21T11:41:45.276Z,128.00
2018-12-21T11:42:45.253Z,116.00
2018-12-21T11:43:45.231Z,108.00
2018-12-21T11:44:45.207Z,88.00
2018-12-21T11:45:45.186Z,112.00
2018-12-21T11:46:45.162Z,100.00
2018-12-21T11:47:45.140Z,108.00
2018-12-21T11:48:45.118Z,116.00
2018-12-21T11:49:45.096Z,132.00
2018-12-21T11:50:45.072Z,112.00
2018-12-21T11:51:45.053Z,112.00
2018-12-21T11:52:45.028Z,120.00
2018-12-21T11:53:45.007Z,156.00
2018-12-21T11:54:44.982Z,156.00
2018-12-21T11:55:44.961Z,104.00
2018-12-21T11:56:44.942Z,124.00
2018-12-21T11:57:44.916Z,124.00
2018-12-21T11:58:44.897Z,120.00
2018-12-21T11:59:45.287Z,120.00
2018-12-21T12:00:44.850Z,112.00
2018-12-21T12:01:44.830Z,72.00
2018-12-21T12:02:44.804Z,56.00
2018-12-21T12:03:44.784Z,52.00
2018-12-21T12:04:44.763Z,64.00
2018-12-21T12:05:44.737Z,72.00
2018-12-21T12:06:44.719Z,76.00
2018-12-21T12:07:44.693Z,76.00
2018-12-21T12:08:44.672Z,92.00
2018-12-21T12:09:44.650Z,84.00
2018-12-21T12:10:44.631Z,72.00
2018-12-21T12:11:44.605Z,80.00
2018-12-21T12:12:44.587Z,92.00
2018-12-21T12:13:44.562Z,128.00
2018-12-21T12:14:44.539Z,104.00
2018-12-21T12:15:44.516Z,108.00
2018-12-21T12:16:44.494Z,128.00
2018-12-21T12:17:44.473Z,124.00
2018-12-21T12:18:44.450Z,156.00
2018-12-21T12:19:44.432Z,136.00
2018-12-21T12:20:44.408Z,112.00
2018-12-21T12:21:44.385Z,156.00
2018-12-21T12:22:44.361Z,164.00
2018-12-21T12:23:44.340Z,160.00
2018-12-21T12:24:52.587Z,156.00
2018-12-21T12:25:44.296Z,136.00
2018-12-21T12:26:44.736Z,144.00
2018-12-21T12:27:44.251Z,152.00
2018-12-21T12:28:44.235Z,144.00
2018-12-21T12:29:44.209Z,168.00
2018-12-21T12:30:44.249Z,148.00
2018-12-21T12:31:44.170Z,184.00
2018-12-21T12:32:44.150Z,192.00
2018-12-21T12:33:44.122Z,168.00
2018-12-21T12:34:44.114Z,144.00
2018-12-21T12:35:44.086Z,120.00
2018-12-21T12:36:44.111Z,168.00
2018-12-21T12:37:44.036Z,140.00
2018-12-21T12:38:44.012Z,128.00
2018-12-21T12:39:43.992Z,144.00
2018-12-21T12:40:43.969Z,112.00
2018-12-21T12:41:43.946Z,120.00
2018-12-21T12:42:43.925Z,116.00
2018-12-21T12:43:43.925Z,148.00
2018-12-21T12:44:43.884Z,120.00
2018-12-21T12:45:43.860Z,112.00
2018-12-21T12:46:43.837Z,180.00
2018-12-21T12:47:43.817Z,156.00
2018-12-21T12:48:43.794Z,148.00
2018-12-21T12:49:43.804Z,104.00
2018-12-21T12:50:43.750Z,128.00
2018-12-21T12:51:43.730Z,132.00
2018-12-21T12:52:43.711Z,116.00
2018-12-21T12:53:43.687Z,108.00
2018-12-21T12:54:43.664Z,104.00
2018-12-21T12:55:43.648Z,88.00
2018-12-21T12:56:43.623Z,84.00
2018-12-21T12:57:43.603Z,96.00
2018-12-21T12:58:43.578Z,152.00
2018-12-21T12:59:43.558Z,136.00
2018-12-21T13:00:43.537Z,120.00
2018-12-21T13:01:43.515Z,152.00
2018-12-21T13:02:43.493Z,140.00
2018-12-21T13:03:43.472Z,124.00
2018-12-21T13:04:43.451Z,136.00
2018-12-21T13:05:43.431Z,140.00
2018-12-21T13:06:43.411Z,152.00
2018-12-21T13:07:43.387Z,168.00
2018-12-21T13:08:43.367Z,116.00
2018-12-21T13:09:43.346Z,116.00
2018-12-21T13:10:43.322Z,132.00
2018-12-21T13:11:43.303Z,136.00
2018-12-21T13:12:43.281Z,168.00
2018-12-21T13:13:43.260Z,148.00
2018-12-21T13:14:43.239Z,156.00